sensor_id;sensor_type;location;lat;lon;timestamp;P1;durP1;ratioP1;P2;durP2;ratioP2
50066;SDS011;35952;52.524;13.340;2023-05-29T00:00:04;6.53;;;5.07;;
50066;SDS011;35952;52.524;13.340;2023-05-29T00:02:36;10.10;;;6.10;;
50066;SDS011;35952;52.524;13.340;2023-05-29T00:05:04;10.80;;;5.80;;
50066;SDS011;35952;52.524;13.340;2023-05-29T00:07:30;9.30;;;4.87;;
50066;SDS011;35952;52.524;13.340;2023-05-29T00:09:57;14.87;;;5.87;;
50066;SDS011;35952;52.524;13.340;2023-05-29T00:12:23;10.47;;;5.13;;
50066;SDS011;35952;52.524;13.340;2023-05-29T00:14:49;8.70;;;5.57;;
50066;SDS011;35952;52.524;13.340;2023-05-29T00:17:14;9.63;;;5.20;;
50066;SDS011;35952;52.524;13.340;2023-05-29T00:19:43;6.13;;;4.87;;
50066;SDS011;35952;52.524;13.340;2023-05-29T00:22:09;5.00;;;4.37;;
50066;SDS011;35952;52.524;13.340;2023-05-29T00:24:35;7.23;;;5.10;;
50066;SDS011;35952;52.524;13.340;2023-05-29T00:27:00;7.17;;;4.93;;
50066;SDS011;35952;52.524;13.340;2023-05-29T00:29:26;9.70;;;5.00;;
50066;SDS011;35952;52.524;13.340;2023-05-29T00:31:52;7.80;;;4.73;;
50066;SDS011;35952;52.524;13.340;2023-05-29T00:34:18;9.30;;;4.90;;
50066;SDS011;35952;52.524;13.340;2023-05-29T00:36:44;8.03;;;4.93;;
50066;SDS011;35952;52.524;13.340;2023-05-29T00:39:11;8.43;;;6.03;;
50066;SDS011;35952;52.524;13.340;2023-05-29T00:41:37;6.93;;;4.80;;
50066;SDS011;35952;52.524;13.340;2023-05-29T00:44:02;7.90;;;4.87;;
50066;SDS011;35952;52.524;13.340;2023-05-29T00:46:28;7.47;;;4.70;;
50066;SDS011;35952;52.524;13.340;2023-05-29T00:48:55;10.73;;;5.53;;
50066;SDS011;35952;52.524;13.340;2023-05-29T00:51:20;8.70;;;4.67;;
50066;SDS011;35952;52.524;13.340;2023-05-29T00:53:47;6.50;;;4.50;;
50066;SDS011;35952;52.524;13.340;2023-05-29T00:56:13;5.33;;;4.27;;
50066;SDS011;35952;52.524;13.340;2023-05-29T00:58:39;5.67;;;4.73;;
50066;SDS011;35952;52.524;13.340;2023-05-29T01:01:06;5.40;;;4.30;;
50066;SDS011;35952;52.524;13.340;2023-05-29T01:03:32;8.67;;;5.10;;
50066;SDS011;35952;52.524;13.340;2023-05-29T01:05:58;7.00;;;4.70;;
50066;SDS011;35952;52.524;13.340;2023-05-29T01:08:23;6.50;;;4.33;;
50066;SDS011;35952;52.524;13.340;2023-05-29T01:10:50;9.67;;;5.27;;
50066;SDS011;35952;52.524;13.340;2023-05-29T01:13:22;6.00;;;4.93;;
50066;SDS011;35952;52.524;13.340;2023-05-29T01:15:59;5.90;;;4.30;;
50066;SDS011;35952;52.524;13.340;2023-05-29T01:18:45;9.50;;;5.47;;
50066;SDS011;35952;52.524;13.340;2023-05-29T01:21:21;9.10;;;5.07;;
50066;SDS011;35952;52.524;13.340;2023-05-29T01:23:53;8.40;;;5.37;;
50066;SDS011;35952;52.524;13.340;2023-05-29T01:26:55;7.40;;;4.40;;
50066;SDS011;35952;52.524;13.340;2023-05-29T01:29:26;9.47;;;5.60;;
50066;SDS011;35952;52.524;13.340;2023-05-29T01:31:53;9.77;;;5.00;;
50066;SDS011;35952;52.524;13.340;2023-05-29T01:34:19;8.20;;;5.20;;
50066;SDS011;35952;52.524;13.340;2023-05-29T01:36:45;6.73;;;4.70;;
50066;SDS011;35952;52.524;13.340;2023-05-29T01:39:14;6.20;;;4.97;;
50066;SDS011;35952;52.524;13.340;2023-05-29T01:41:40;6.90;;;5.20;;
50066;SDS011;35952;52.524;13.340;2023-05-29T01:44:07;12.67;;;6.37;;
50066;SDS011;35952;52.524;13.340;2023-05-29T01:46:40;13.20;;;5.80;;
50066;SDS011;35952;52.524;13.340;2023-05-29T01:49:07;6.73;;;5.50;;
50066;SDS011;35952;52.524;13.340;2023-05-29T01:51:34;8.50;;;6.10;;
50066;SDS011;35952;52.524;13.340;2023-05-29T01:54:00;9.20;;;5.30;;
50066;SDS011;35952;52.524;13.340;2023-05-29T01:56:26;11.13;;;5.77;;
50066;SDS011;35952;52.524;13.340;2023-05-29T01:58:53;8.47;;;5.40;;
50066;SDS011;35952;52.524;13.340;2023-05-29T02:01:21;6.97;;;5.57;;
50066;SDS011;35952;52.524;13.340;2023-05-29T02:03:47;14.50;;;6.00;;
50066;SDS011;35952;52.524;13.340;2023-05-29T02:06:13;8.33;;;5.83;;
50066;SDS011;35952;52.524;13.340;2023-05-29T02:08:38;14.10;;;5.60;;
50066;SDS011;35952;52.524;13.340;2023-05-29T02:11:04;9.90;;;5.90;;
50066;SDS011;35952;52.524;13.340;2023-05-29T02:13:29;8.30;;;5.67;;
50066;SDS011;35952;52.524;13.340;2023-05-29T02:15:55;8.43;;;5.97;;
50066;SDS011;35952;52.524;13.340;2023-05-29T02:18:20;7.60;;;5.90;;
50066;SDS011;35952;52.524;13.340;2023-05-29T02:20:46;8.77;;;5.23;;
50066;SDS011;35952;52.524;13.340;2023-05-29T02:23:11;6.50;;;5.60;;
50066;SDS011;35952;52.524;13.340;2023-05-29T02:25:37;8.47;;;5.50;;
50066;SDS011;35952;52.524;13.340;2023-05-29T02:28:03;7.10;;;5.93;;
50066;SDS011;35952;52.524;13.340;2023-05-29T02:30:29;12.43;;;6.57;;
50066;SDS011;35952;52.524;13.340;2023-05-29T02:32:55;8.80;;;4.97;;
50066;SDS011;35952;52.524;13.340;2023-05-29T02:35:21;6.30;;;5.50;;
50066;SDS011;35952;52.524;13.340;2023-05-29T02:37:48;7.60;;;5.17;;
50066;SDS011;35952;52.524;13.340;2023-05-29T02:40:14;10.07;;;5.60;;
50066;SDS011;35952;52.524;13.340;2023-05-29T02:42:39;6.93;;;5.10;;
50066;SDS011;35952;52.524;13.340;2023-05-29T02:45:05;8.80;;;6.47;;
50066;SDS011;35952;52.524;13.340;2023-05-29T02:47:31;9.73;;;5.10;;
50066;SDS011;35952;52.524;13.340;2023-05-29T02:49:57;9.70;;;5.57;;
50066;SDS011;35952;52.524;13.340;2023-05-29T02:52:23;11.60;;;5.57;;
50066;SDS011;35952;52.524;13.340;2023-05-29T02:54:49;12.13;;;7.13;;
50066;SDS011;35952;52.524;13.340;2023-05-29T02:57:14;6.67;;;5.70;;
50066;SDS011;35952;52.524;13.340;2023-05-29T02:59:40;9.80;;;6.07;;
50066;SDS011;35952;52.524;13.340;2023-05-29T03:02:10;8.97;;;5.87;;
50066;SDS011;35952;52.524;13.340;2023-05-29T03:04:36;11.17;;;5.90;;
50066;SDS011;35952;52.524;13.340;2023-05-29T03:07:01;7.00;;;5.70;;
50066;SDS011;35952;52.524;13.340;2023-05-29T03:09:27;13.00;;;5.83;;
50066;SDS011;35952;52.524;13.340;2023-05-29T03:11:52;6.27;;;5.60;;
50066;SDS011;35952;52.524;13.340;2023-05-29T03:14:18;6.87;;;5.47;;
50066;SDS011;35952;52.524;13.340;2023-05-29T03:16:43;11.30;;;6.50;;
50066;SDS011;35952;52.524;13.340;2023-05-29T03:19:09;7.53;;;5.50;;
50066;SDS011;35952;52.524;13.340;2023-05-29T03:21:37;8.67;;;6.13;;
50066;SDS011;35952;52.524;13.340;2023-05-29T03:24:03;9.93;;;5.50;;
50066;SDS011;35952;52.524;13.340;2023-05-29T03:26:29;8.70;;;5.83;;
50066;SDS011;35952;52.524;13.340;2023-05-29T03:28:54;7.20;;;4.97;;
50066;SDS011;35952;52.524;13.340;2023-05-29T03:31:20;9.87;;;5.97;;
50066;SDS011;35952;52.524;13.340;2023-05-29T03:33:46;9.37;;;4.97;;
50066;SDS011;35952;52.524;13.340;2023-05-29T03:36:12;8.53;;;5.83;;
50066;SDS011;35952;52.524;13.340;2023-05-29T03:38:42;7.40;;;5.37;;
50066;SDS011;35952;52.524;13.340;2023-05-29T03:41:07;8.23;;;5.97;;
50066;SDS011;35952;52.524;13.340;2023-05-29T03:43:33;8.43;;;5.33;;
50066;SDS011;35952;52.524;13.340;2023-05-29T03:45:59;7.33;;;5.80;;
50066;SDS011;35952;52.524;13.340;2023-05-29T03:48:24;11.90;;;5.37;;
50066;SDS011;35952;52.524;13.340;2023-05-29T03:50:50;8.77;;;5.27;;
50066;SDS011;35952;52.524;13.340;2023-05-29T03:53:15;8.87;;;4.80;;
50066;SDS011;35952;52.524;13.340;2023-05-29T03:55:41;7.60;;;5.17;;
50066;SDS011;35952;52.524;13.340;2023-05-29T03:58:06;6.93;;;5.17;;
50066;SDS011;35952;52.524;13.340;2023-05-29T04:00:32;9.63;;;5.90;;
50066;SDS011;35952;52.524;13.340;2023-05-29T04:02:57;7.07;;;5.90;;
50066;SDS011;35952;52.524;13.340;2023-05-29T04:05:23;9.47;;;5.47;;
50066;SDS011;35952;52.524;13.340;2023-05-29T04:07:48;5.17;;;4.67;;
50066;SDS011;35952;52.524;13.340;2023-05-29T04:10:14;8.40;;;5.90;;
50066;SDS011;35952;52.524;13.340;2023-05-29T04:12:40;6.17;;;5.00;;
50066;SDS011;35952;52.524;13.340;2023-05-29T04:15:05;5.10;;;3.97;;
50066;SDS011;35952;52.524;13.340;2023-05-29T04:17:31;7.30;;;5.53;;
50066;SDS011;35952;52.524;13.340;2023-05-29T04:19:57;8.03;;;5.57;;
50066;SDS011;35952;52.524;13.340;2023-05-29T04:22:23;7.53;;;5.23;;
50066;SDS011;35952;52.524;13.340;2023-05-29T04:24:48;6.40;;;4.80;;
50066;SDS011;35952;52.524;13.340;2023-05-29T04:27:14;8.93;;;5.20;;
50066;SDS011;35952;52.524;13.340;2023-05-29T04:29:42;7.50;;;5.57;;
50066;SDS011;35952;52.524;13.340;2023-05-29T04:32:08;7.53;;;4.87;;
50066;SDS011;35952;52.524;13.340;2023-05-29T04:34:36;5.67;;;4.43;;
50066;SDS011;35952;52.524;13.340;2023-05-29T04:37:02;7.50;;;5.90;;
50066;SDS011;35952;52.524;13.340;2023-05-29T04:39:28;8.80;;;5.20;;
50066;SDS011;35952;52.524;13.340;2023-05-29T04:41:54;5.23;;;4.63;;
50066;SDS011;35952;52.524;13.340;2023-05-29T04:44:21;4.83;;;4.40;;
50066;SDS011;35952;52.524;13.340;2023-05-29T04:46:47;6.80;;;4.90;;
50066;SDS011;35952;52.524;13.340;2023-05-29T04:49:13;5.50;;;4.47;;
50066;SDS011;35952;52.524;13.340;2023-05-29T04:51:39;8.83;;;5.10;;
50066;SDS011;35952;52.524;13.340;2023-05-29T04:54:07;7.10;;;4.90;;
50066;SDS011;35952;52.524;13.340;2023-05-29T04:56:34;6.30;;;4.73;;
50066;SDS011;35952;52.524;13.340;2023-05-29T04:59:00;6.20;;;4.60;;
50066;SDS011;35952;52.524;13.340;2023-05-29T05:01:26;5.50;;;4.87;;
50066;SDS011;35952;52.524;13.340;2023-05-29T05:03:51;7.20;;;4.43;;
50066;SDS011;35952;52.524;13.340;2023-05-29T05:06:20;6.40;;;4.80;;
50066;SDS011;35952;52.524;13.340;2023-05-29T05:08:50;4.77;;;4.37;;
50066;SDS011;35952;52.524;13.340;2023-05-29T05:11:16;7.53;;;5.87;;
50066;SDS011;35952;52.524;13.340;2023-05-29T05:13:43;5.77;;;5.10;;
50066;SDS011;35952;52.524;13.340;2023-05-29T05:16:08;8.53;;;4.50;;
50066;SDS011;35952;52.524;13.340;2023-05-29T05:18:34;5.37;;;4.67;;
50066;SDS011;35952;52.524;13.340;2023-05-29T05:21:00;5.77;;;4.40;;
50066;SDS011;35952;52.524;13.340;2023-05-29T05:23:28;5.27;;;4.77;;
50066;SDS011;35952;52.524;13.340;2023-05-29T05:25:53;4.97;;;4.50;;
50066;SDS011;35952;52.524;13.340;2023-05-29T05:28:19;5.23;;;4.23;;
50066;SDS011;35952;52.524;13.340;2023-05-29T05:30:44;7.33;;;4.27;;
50066;SDS011;35952;52.524;13.340;2023-05-29T05:33:10;5.23;;;4.40;;
50066;SDS011;35952;52.524;13.340;2023-05-29T05:35:36;5.63;;;4.20;;
50066;SDS011;35952;52.524;13.340;2023-05-29T05:38:01;6.17;;;3.87;;
50066;SDS011;35952;52.524;13.340;2023-05-29T05:40:27;6.60;;;3.90;;
50066;SDS011;35952;52.524;13.340;2023-05-29T05:42:53;4.60;;;4.13;;
50066;SDS011;35952;52.524;13.340;2023-05-29T05:45:19;4.47;;;3.67;;
50066;SDS011;35952;52.524;13.340;2023-05-29T05:47:47;5.77;;;4.30;;
50066;SDS011;35952;52.524;13.340;2023-05-29T05:50:13;4.50;;;3.73;;
50066;SDS011;35952;52.524;13.340;2023-05-29T05:52:41;5.57;;;3.70;;
50066;SDS011;35952;52.524;13.340;2023-05-29T05:55:07;6.43;;;3.80;;
50066;SDS011;35952;52.524;13.340;2023-05-29T05:57:32;4.83;;;3.53;;
50066;SDS011;35952;52.524;13.340;2023-05-29T05:59:59;4.43;;;4.03;;
50066;SDS011;35952;52.524;13.340;2023-05-29T06:02:25;7.17;;;4.80;;
50066;SDS011;35952;52.524;13.340;2023-05-29T06:04:50;5.17;;;3.60;;
50066;SDS011;35952;52.524;13.340;2023-05-29T06:07:16;3.60;;;2.90;;
50066;SDS011;35952;52.524;13.340;2023-05-29T06:09:42;4.30;;;3.37;;
50066;SDS011;35952;52.524;13.340;2023-05-29T06:12:08;4.90;;;3.17;;
50066;SDS011;35952;52.524;13.340;2023-05-29T06:14:34;3.63;;;3.33;;
50066;SDS011;35952;52.524;13.340;2023-05-29T06:17:00;3.57;;;3.13;;
50066;SDS011;35952;52.524;13.340;2023-05-29T06:19:25;4.37;;;3.43;;
50066;SDS011;35952;52.524;13.340;2023-05-29T06:21:51;3.60;;;3.30;;
50066;SDS011;35952;52.524;13.340;2023-05-29T06:24:16;4.00;;;2.70;;
50066;SDS011;35952;52.524;13.340;2023-05-29T06:26:42;3.53;;;2.90;;
50066;SDS011;35952;52.524;13.340;2023-05-29T06:29:07;3.70;;;3.40;;
50066;SDS011;35952;52.524;13.340;2023-05-29T06:31:35;8.40;;;4.07;;
50066;SDS011;35952;52.524;13.340;2023-05-29T06:34:00;5.57;;;3.60;;
50066;SDS011;35952;52.524;13.340;2023-05-29T06:36:26;5.50;;;3.93;;
50066;SDS011;35952;52.524;13.340;2023-05-29T06:38:52;8.07;;;4.10;;
50066;SDS011;35952;52.524;13.340;2023-05-29T06:41:17;5.60;;;3.83;;
50066;SDS011;35952;52.524;13.340;2023-05-29T06:43:43;5.00;;;3.40;;
50066;SDS011;35952;52.524;13.340;2023-05-29T06:46:09;6.33;;;3.53;;
50066;SDS011;35952;52.524;13.340;2023-05-29T06:48:35;2.83;;;2.63;;
50066;SDS011;35952;52.524;13.340;2023-05-29T06:51:01;5.67;;;3.60;;
50066;SDS011;35952;52.524;13.340;2023-05-29T06:53:34;5.90;;;3.87;;
50066;SDS011;35952;52.524;13.340;2023-05-29T06:56:00;3.27;;;3.00;;
50066;SDS011;35952;52.524;13.340;2023-05-29T06:58:26;3.40;;;3.10;;
50066;SDS011;35952;52.524;13.340;2023-05-29T07:00:52;6.97;;;4.90;;
50066;SDS011;35952;52.524;13.340;2023-05-29T07:03:17;3.73;;;3.10;;
50066;SDS011;35952;52.524;13.340;2023-05-29T07:05:43;3.63;;;2.70;;
50066;SDS011;35952;52.524;13.340;2023-05-29T07:08:08;3.73;;;2.90;;
50066;SDS011;35952;52.524;13.340;2023-05-29T07:10:34;4.70;;;3.17;;
50066;SDS011;35952;52.524;13.340;2023-05-29T07:12:59;4.30;;;3.27;;
50066;SDS011;35952;52.524;13.340;2023-05-29T07:15:25;8.03;;;3.63;;
50066;SDS011;35952;52.524;13.340;2023-05-29T07:17:50;3.80;;;3.20;;
50066;SDS011;35952;52.524;13.340;2023-05-29T07:20:16;3.57;;;3.27;;
50066;SDS011;35952;52.524;13.340;2023-05-29T07:22:43;4.47;;;3.57;;
50066;SDS011;35952;52.524;13.340;2023-05-29T07:25:09;3.30;;;3.00;;
50066;SDS011;35952;52.524;13.340;2023-05-29T07:27:35;4.73;;;3.03;;
50066;SDS011;35952;52.524;13.340;2023-05-29T07:30:01;5.57;;;2.70;;
50066;SDS011;35952;52.524;13.340;2023-05-29T07:32:28;4.37;;;2.67;;
50066;SDS011;35952;52.524;13.340;2023-05-29T07:34:53;3.20;;;2.90;;
50066;SDS011;35952;52.524;13.340;2023-05-29T07:37:20;4.37;;;2.93;;
50066;SDS011;35952;52.524;13.340;2023-05-29T07:39:46;4.67;;;3.23;;
50066;SDS011;35952;52.524;13.340;2023-05-29T07:42:11;3.10;;;2.80;;
50066;SDS011;35952;52.524;13.340;2023-05-29T07:44:36;3.10;;;2.70;;
50066;SDS011;35952;52.524;13.340;2023-05-29T07:47:02;3.57;;;3.27;;
50066;SDS011;35952;52.524;13.340;2023-05-29T07:49:27;5.67;;;2.83;;
50066;SDS011;35952;52.524;13.340;2023-05-29T07:51:53;4.57;;;2.50;;
50066;SDS011;35952;52.524;13.340;2023-05-29T07:54:18;3.50;;;3.20;;
50066;SDS011;35952;52.524;13.340;2023-05-29T07:56:45;3.90;;;2.87;;
50066;SDS011;35952;52.524;13.340;2023-05-29T07:59:11;4.67;;;2.67;;
50066;SDS011;35952;52.524;13.340;2023-05-29T08:01:37;8.83;;;3.23;;
50066;SDS011;35952;52.524;13.340;2023-05-29T08:04:04;3.90;;;3.30;;
50066;SDS011;35952;52.524;13.340;2023-05-29T08:06:29;3.20;;;3.00;;
50066;SDS011;35952;52.524;13.340;2023-05-29T08:08:57;6.20;;;3.00;;
50066;SDS011;35952;52.524;13.340;2023-05-29T08:11:23;3.47;;;3.17;;
50066;SDS011;35952;52.524;13.340;2023-05-29T08:13:48;3.40;;;3.13;;
50066;SDS011;35952;52.524;13.340;2023-05-29T08:16:14;3.90;;;3.50;;
50066;SDS011;35952;52.524;13.340;2023-05-29T08:18:40;3.87;;;2.93;;
50066;SDS011;35952;52.524;13.340;2023-05-29T08:21:06;9.30;;;3.73;;
50066;SDS011;35952;52.524;13.340;2023-05-29T08:23:31;3.53;;;3.30;;
50066;SDS011;35952;52.524;13.340;2023-05-29T08:25:57;5.40;;;2.90;;
50066;SDS011;35952;52.524;13.340;2023-05-29T08:28:22;5.17;;;3.37;;
50066;SDS011;35952;52.524;13.340;2023-05-29T08:30:48;3.60;;;3.30;;
50066;SDS011;35952;52.524;13.340;2023-05-29T08:33:14;3.90;;;3.53;;
50066;SDS011;35952;52.524;13.340;2023-05-29T08:35:40;3.40;;;2.93;;
50066;SDS011;35952;52.524;13.340;2023-05-29T08:38:05;3.70;;;3.40;;
50066;SDS011;35952;52.524;13.340;2023-05-29T08:40:31;3.73;;;3.43;;
50066;SDS011;35952;52.524;13.340;2023-05-29T08:42:57;4.20;;;3.50;;
50066;SDS011;35952;52.524;13.340;2023-05-29T08:45:44;5.60;;;4.20;;
50066;SDS011;35952;52.524;13.340;2023-05-29T08:48:10;2.90;;;2.60;;
50066;SDS011;35952;52.524;13.340;2023-05-29T08:50:45;3.40;;;3.10;;
50066;SDS011;35952;52.524;13.340;2023-05-29T08:53:12;4.03;;;3.30;;
50066;SDS011;35952;52.524;13.340;2023-05-29T08:55:39;4.30;;;3.90;;
50066;SDS011;35952;52.524;13.340;2023-05-29T08:58:05;7.07;;;3.53;;
50066;SDS011;35952;52.524;13.340;2023-05-29T09:00:31;3.73;;;3.43;;
50066;SDS011;35952;52.524;13.340;2023-05-29T09:02:57;4.07;;;3.53;;
50066;SDS011;35952;52.524;13.340;2023-05-29T09:05:24;5.77;;;4.10;;
50066;SDS011;35952;52.524;13.340;2023-05-29T09:07:52;5.17;;;4.00;;
50066;SDS011;35952;52.524;13.340;2023-05-29T09:10:18;3.80;;;3.40;;
50066;SDS011;35952;52.524;13.340;2023-05-29T09:12:45;3.90;;;3.50;;
50066;SDS011;35952;52.524;13.340;2023-05-29T09:15:17;5.27;;;3.20;;
50066;SDS011;35952;52.524;13.340;2023-05-29T09:17:43;5.03;;;3.70;;
50066;SDS011;35952;52.524;13.340;2023-05-29T09:20:17;4.03;;;3.40;;
50066;SDS011;35952;52.524;13.340;2023-05-29T09:22:51;6.60;;;3.93;;
50066;SDS011;35952;52.524;13.340;2023-05-29T09:25:22;5.70;;;3.50;;
50066;SDS011;35952;52.524;13.340;2023-05-29T09:27:53;4.20;;;3.80;;
50066;SDS011;35952;52.524;13.340;2023-05-29T09:33:07;4.80;;;3.73;;
50066;SDS011;35952;52.524;13.340;2023-05-29T09:35:34;3.90;;;3.40;;
50066;SDS011;35952;52.524;13.340;2023-05-29T09:38:04;5.30;;;3.97;;
50066;SDS011;35952;52.524;13.340;2023-05-29T09:40:31;3.97;;;3.60;;
50066;SDS011;35952;52.524;13.340;2023-05-29T09:43:05;4.33;;;3.93;;
50066;SDS011;35952;52.524;13.340;2023-05-29T09:45:35;4.57;;;4.07;;
50066;SDS011;35952;52.524;13.340;2023-05-29T09:48:03;6.80;;;4.17;;
50066;SDS011;35952;52.524;13.340;2023-05-29T09:50:29;3.80;;;3.50;;
50066;SDS011;35952;52.524;13.340;2023-05-29T09:52:56;4.90;;;4.00;;
50066;SDS011;35952;52.524;13.340;2023-05-29T09:55:22;5.17;;;4.20;;
50066;SDS011;35952;52.524;13.340;2023-05-29T09:57:51;4.87;;;4.10;;
50066;SDS011;35952;52.524;13.340;2023-05-29T10:00:18;5.47;;;4.03;;
50066;SDS011;35952;52.524;13.340;2023-05-29T10:02:45;5.50;;;4.17;;
50066;SDS011;35952;52.524;13.340;2023-05-29T10:05:10;4.80;;;4.30;;
50066;SDS011;35952;52.524;13.340;2023-05-29T10:07:37;7.57;;;5.00;;
50066;SDS011;35952;52.524;13.340;2023-05-29T10:10:08;5.20;;;3.70;;
50066;SDS011;35952;52.524;13.340;2023-05-29T10:12:37;5.87;;;4.60;;
50066;SDS011;35952;52.524;13.340;2023-05-29T10:15:08;9.47;;;5.97;;
50066;SDS011;35952;52.524;13.340;2023-05-29T10:17:38;6.00;;;5.07;;
50066;SDS011;35952;52.524;13.340;2023-05-29T10:20:11;7.77;;;4.70;;
50066;SDS011;35952;52.524;13.340;2023-05-29T10:22:41;9.83;;;4.57;;
50066;SDS011;35952;52.524;13.340;2023-05-29T10:25:11;5.60;;;4.87;;
50066;SDS011;35952;52.524;13.340;2023-05-29T10:27:39;5.03;;;4.50;;
50066;SDS011;35952;52.524;13.340;2023-05-29T10:30:06;4.43;;;4.13;;
50066;SDS011;35952;52.524;13.340;2023-05-29T10:38:35;7.27;;;3.97;;
50066;SDS011;35952;52.524;13.340;2023-05-29T10:43:53;6.40;;;4.00;;
50066;SDS011;35952;52.524;13.340;2023-05-29T10:46:19;6.63;;;3.60;;
50066;SDS011;35952;52.524;13.340;2023-05-29T10:48:47;4.50;;;3.37;;
50066;SDS011;35952;52.524;13.340;2023-05-29T10:51:24;4.40;;;4.00;;
50066;SDS011;35952;52.524;13.340;2023-05-29T10:53:52;4.83;;;3.87;;
50066;SDS011;35952;52.524;13.340;2023-05-29T10:56:21;4.07;;;3.77;;
50066;SDS011;35952;52.524;13.340;2023-05-29T10:58:54;4.00;;;3.50;;
50066;SDS011;35952;52.524;13.340;2023-05-29T11:01:22;5.80;;;4.30;;
50066;SDS011;35952;52.524;13.340;2023-05-29T11:03:50;3.40;;;3.10;;
50066;SDS011;35952;52.524;13.340;2023-05-29T11:06:18;4.40;;;3.80;;
50066;SDS011;35952;52.524;13.340;2023-05-29T11:08:55;4.50;;;4.03;;
50066;SDS011;35952;52.524;13.340;2023-05-29T11:13:53;5.77;;;4.90;;
50066;SDS011;35952;52.524;13.340;2023-05-29T11:18:57;5.60;;;4.13;;
50066;SDS011;35952;52.524;13.340;2023-05-29T11:24:08;7.83;;;5.20;;
50066;SDS011;35952;52.524;13.340;2023-05-29T11:26:50;3.93;;;3.50;;
50066;SDS011;35952;52.524;13.340;2023-05-29T11:29:20;6.70;;;3.70;;
50066;SDS011;35952;52.524;13.340;2023-05-29T11:31:55;5.53;;;4.47;;
50066;SDS011;35952;52.524;13.340;2023-05-29T11:34:35;5.90;;;4.30;;
50066;SDS011;35952;52.524;13.340;2023-05-29T11:37:05;4.67;;;3.83;;
50066;SDS011;35952;52.524;13.340;2023-05-29T11:39:31;6.67;;;4.17;;
50066;SDS011;35952;52.524;13.340;2023-05-29T11:42:01;4.47;;;4.07;;
50066;SDS011;35952;52.524;13.340;2023-05-29T11:44:27;4.93;;;3.53;;
50066;SDS011;35952;52.524;13.340;2023-05-29T11:47:02;4.47;;;3.60;;
50066;SDS011;35952;52.524;13.340;2023-05-29T11:49:29;5.67;;;4.00;;
50066;SDS011;35952;52.524;13.340;2023-05-29T11:54:35;3.53;;;3.10;;
50066;SDS011;35952;52.524;13.340;2023-05-29T11:57:01;5.70;;;3.97;;
50066;SDS011;35952;52.524;13.340;2023-05-29T11:59:31;5.03;;;4.27;;
50066;SDS011;35952;52.524;13.340;2023-05-29T12:01:58;5.47;;;3.77;;
50066;SDS011;35952;52.524;13.340;2023-05-29T12:04:26;4.57;;;4.13;;
50066;SDS011;35952;52.524;13.340;2023-05-29T12:06:53;5.50;;;4.20;;
50066;SDS011;35952;52.524;13.340;2023-05-29T12:09:28;8.63;;;3.47;;
50066;SDS011;35952;52.524;13.340;2023-05-29T12:12:00;4.33;;;3.83;;
50066;SDS011;35952;52.524;13.340;2023-05-29T12:14:30;4.00;;;3.70;;
50066;SDS011;35952;52.524;13.340;2023-05-29T12:16:55;5.73;;;3.90;;
50066;SDS011;35952;52.524;13.340;2023-05-29T12:19:21;7.37;;;3.80;;
50066;SDS011;35952;52.524;13.340;2023-05-29T12:21:47;5.10;;;3.93;;
50066;SDS011;35952;52.524;13.340;2023-05-29T12:24:12;5.33;;;3.90;;
50066;SDS011;35952;52.524;13.340;2023-05-29T12:26:38;7.03;;;4.30;;
50066;SDS011;35952;52.524;13.340;2023-05-29T12:29:04;4.30;;;3.90;;
50066;SDS011;35952;52.524;13.340;2023-05-29T12:31:30;3.30;;;3.00;;
50066;SDS011;35952;52.524;13.340;2023-05-29T12:34:00;5.67;;;4.10;;
50066;SDS011;35952;52.524;13.340;2023-05-29T12:36:26;9.23;;;4.10;;
50066;SDS011;35952;52.524;13.340;2023-05-29T12:38:52;6.30;;;4.30;;
50066;SDS011;35952;52.524;13.340;2023-05-29T12:43:58;3.73;;;3.43;;
50066;SDS011;35952;52.524;13.340;2023-05-29T12:46:26;3.97;;;3.30;;
50066;SDS011;35952;52.524;13.340;2023-05-29T12:48:53;5.73;;;4.03;;
50066;SDS011;35952;52.524;13.340;2023-05-29T12:51:23;5.03;;;3.90;;
50066;SDS011;35952;52.524;13.340;2023-05-29T12:53:52;5.30;;;3.40;;
50066;SDS011;35952;52.524;13.340;2023-05-29T12:56:20;4.53;;;4.23;;
50066;SDS011;35952;52.524;13.340;2023-05-29T12:58:47;5.87;;;4.07;;
50066;SDS011;35952;52.524;13.340;2023-05-29T13:01:13;5.17;;;3.63;;
50066;SDS011;35952;52.524;13.340;2023-05-29T13:03:40;5.10;;;4.00;;
50066;SDS011;35952;52.524;13.340;2023-05-29T13:06:05;5.83;;;3.73;;
50066;SDS011;35952;52.524;13.340;2023-05-29T13:08:32;4.83;;;3.73;;
50066;SDS011;35952;52.524;13.340;2023-05-29T13:10:57;3.93;;;3.53;;
50066;SDS011;35952;52.524;13.340;2023-05-29T13:13:23;4.83;;;3.30;;
50066;SDS011;35952;52.524;13.340;2023-05-29T13:15:48;6.00;;;3.97;;
50066;SDS011;35952;52.524;13.340;2023-05-29T13:18:14;4.07;;;3.10;;
50066;SDS011;35952;52.524;13.340;2023-05-29T13:20:39;4.63;;;4.03;;
50066;SDS011;35952;52.524;13.340;2023-05-29T13:23:05;3.80;;;3.03;;
50066;SDS011;35952;52.524;13.340;2023-05-29T13:25:30;3.67;;;3.37;;
50066;SDS011;35952;52.524;13.340;2023-05-29T13:27:56;4.27;;;3.43;;
50066;SDS011;35952;52.524;13.340;2023-05-29T13:30:21;6.10;;;3.97;;
50066;SDS011;35952;52.524;13.340;2023-05-29T13:32:47;6.07;;;3.70;;
50066;SDS011;35952;52.524;13.340;2023-05-29T13:35:13;4.57;;;3.73;;
50066;SDS011;35952;52.524;13.340;2023-05-29T13:37:40;4.23;;;3.83;;
50066;SDS011;35952;52.524;13.340;2023-05-29T13:40:06;5.10;;;3.70;;
50066;SDS011;35952;52.524;13.340;2023-05-29T13:42:34;6.37;;;4.10;;
50066;SDS011;35952;52.524;13.340;2023-05-29T13:45:00;6.30;;;4.30;;
50066;SDS011;35952;52.524;13.340;2023-05-29T13:47:25;5.77;;;4.03;;
50066;SDS011;35952;52.524;13.340;2023-05-29T13:49:53;5.17;;;3.30;;
50066;SDS011;35952;52.524;13.340;2023-05-29T13:52:19;5.80;;;3.27;;
50066;SDS011;35952;52.524;13.340;2023-05-29T13:54:44;3.57;;;3.03;;
50066;SDS011;35952;52.524;13.340;2023-05-29T13:57:10;6.50;;;4.10;;
50066;SDS011;35952;52.524;13.340;2023-05-29T13:59:35;5.47;;;3.37;;
50066;SDS011;35952;52.524;13.340;2023-05-29T14:02:01;6.40;;;3.13;;
50066;SDS011;35952;52.524;13.340;2023-05-29T14:04:31;5.93;;;3.20;;
50066;SDS011;35952;52.524;13.340;2023-05-29T14:06:56;5.87;;;3.47;;
50066;SDS011;35952;52.524;13.340;2023-05-29T14:09:22;3.67;;;3.17;;
50066;SDS011;35952;52.524;13.340;2023-05-29T14:11:55;5.73;;;3.33;;
50066;SDS011;35952;52.524;13.340;2023-05-29T14:14:23;9.33;;;5.30;;
50066;SDS011;35952;52.524;13.340;2023-05-29T14:16:49;4.57;;;3.30;;
50066;SDS011;35952;52.524;13.340;2023-05-29T14:19:16;4.63;;;3.80;;
50066;SDS011;35952;52.524;13.340;2023-05-29T14:21:42;8.00;;;4.23;;
50066;SDS011;35952;52.524;13.340;2023-05-29T14:24:08;4.03;;;3.60;;
50066;SDS011;35952;52.524;13.340;2023-05-29T14:26:34;6.30;;;4.27;;
50066;SDS011;35952;52.524;13.340;2023-05-29T14:29:00;9.03;;;3.80;;
50066;SDS011;35952;52.524;13.340;2023-05-29T14:31:26;5.97;;;3.60;;
50066;SDS011;35952;52.524;13.340;2023-05-29T14:33:51;5.30;;;3.60;;
50066;SDS011;35952;52.524;13.340;2023-05-29T14:36:16;3.63;;;3.33;;
50066;SDS011;35952;52.524;13.340;2023-05-29T14:38:42;6.43;;;3.70;;
50066;SDS011;35952;52.524;13.340;2023-05-29T14:41:09;7.53;;;4.80;;
50066;SDS011;35952;52.524;13.340;2023-05-29T14:43:35;4.13;;;2.80;;
50066;SDS011;35952;52.524;13.340;2023-05-29T14:46:00;2.90;;;2.70;;
50066;SDS011;35952;52.524;13.340;2023-05-29T14:48:26;6.37;;;5.00;;
50066;SDS011;35952;52.524;13.340;2023-05-29T14:50:52;8.07;;;4.33;;
50066;SDS011;35952;52.524;13.340;2023-05-29T14:53:17;3.90;;;3.50;;
50066;SDS011;35952;52.524;13.340;2023-05-29T14:55:43;5.23;;;3.40;;